Sirios Cement IV — 5BQY4 — position and weather

sailwx.info

Track history (hours):
 
Tides and Currents Weather Stations Pressure Air Temp Water Temp Dewpoint Dewpoint Depression Visibility Wind Speed Wind Dir Waves Ship Positions

Sirios Cement IV

Last reported at 2018-Feb-17 14:16 UTC. Time now 2018-Feb-18 03:31 UTC.
Position N 37°14' E 025°51'.

Length 134 m; draft 8.6 m.

Type: Cargo ship. MMSI: 212754000.

Date/timePositionNaut miles runAvg speedWind from/ knotsBaromVisibWave heightAir tempDewpointWater temp
2018-Feb-17 14:16N 37°14' E 025°51'311.1
2018-Feb-17 14:00N 37°16' E 025°49'611.2
2018-Feb-17 13:30N 37°21' E 025°44'610.6
2018-Feb-17 12:58N 37°25' E 025°40'510.2
2018-Feb-17 12:30N 37°29' E 025°36'510.7
2018-Feb-17 12:00N 37°33' E 025°32'510.8
2018-Feb-17 11:30N 37°37' E 025°27'511.0
2018-Feb-17 11:00N 37°41' E 025°23'511.0
2018-Feb-17 10:30N 37°45' E 025°18'510.9
2018-Feb-17 10:00N 37°49' E 025°14'710.6
2018-Feb-17 09:23N 37°54' E 025°08'  
2018-Feb-14 07:20N 37°53' E 025°06'4 9.0
2018-Feb-14 06:55N 37°51' E 025°10'4 9.2
2018-Feb-14 06:28N 37°48' E 025°14'5 9.6
2018-Feb-14 05:59N 37°45' E 025°18'510.2
2018-Feb-14 05:30N 37°41' E 025°22'510.0
2018-Feb-14 05:01N 37°38' E 025°26'510.3
2018-Feb-14 04:30N 37°34' E 025°31'510.6
2018-Feb-14 04:01N 37°30' E 025°35'510.5
2018-Feb-14 03:30N 37°26' E 025°39'510.5
2018-Feb-14 03:00N 37°22' E 025°44'510.2
2018-Feb-14 02:31N 37°18' E 025°48'51110.1
2018-Feb-12 00:01N 32°58' E 034°46'010.7
2018-Feb-12 00:00N 32°58' E 034°46'510.4
2018-Feb-11 23:29N 32°56' E 034°52'610.9
2018-Feb-11 22:59N 32°53' E 034°57'3 0.1
2018-Feb-10 22:16N 32°51' E 035°00'0 0.2
2018-Feb-10 21:56N 32°51' E 035°00'1 0.0
2018-Feb-10 09:12N 32°52' E 035°00'  
2018-Feb-08 01:10N 32°52' E 035°00'  
Track history (hours):
 
Tides and Currents Weather Stations Pressure Air Temp Water Temp Dewpoint Dewpoint Depression Visibility Wind Speed Wind Dir Waves Ship Positions

Sirios Cement IV

Last reported at 2018-Feb-17 14:16 UTC. Time now 2018-Feb-18 03:31 UTC.
Position N 37°14' E 025°51'.

Length 134 m; draft 8.6 m.

Type: Cargo ship. MMSI: 212754000.

Date/timePositionNaut miles runAvg speedWind from/ knotsBaromVisibWave heightAir tempDewpointWater temp
2018-Feb-17 14:16N 37°14' E 025°51'311.1
2018-Feb-17 14:00N 37°16' E 025°49'611.2
2018-Feb-17 13:30N 37°21' E 025°44'610.6
2018-Feb-17 12:58N 37°25' E 025°40'510.2
2018-Feb-17 12:30N 37°29' E 025°36'510.7
2018-Feb-17 12:00N 37°33' E 025°32'510.8
2018-Feb-17 11:30N 37°37' E 025°27'511.0
2018-Feb-17 11:00N 37°41' E 025°23'511.0
2018-Feb-17 10:30N 37°45' E 025°18'510.9
2018-Feb-17 10:00N 37°49' E 025°14'710.6
2018-Feb-17 09:23N 37°54' E 025°08'  
2018-Feb-14 07:20N 37°53' E 025°06'4 9.0
2018-Feb-14 06:55N 37°51' E 025°10'4 9.2
2018-Feb-14 06:28N 37°48' E 025°14'5 9.6
2018-Feb-14 05:59N 37°45' E 025°18'510.2
2018-Feb-14 05:30N 37°41' E 025°22'510.0
2018-Feb-14 05:01N 37°38' E 025°26'510.3
2018-Feb-14 04:30N 37°34' E 025°31'510.6
2018-Feb-14 04:01N 37°30' E 025°35'510.5
2018-Feb-14 03:30N 37°26' E 025°39'510.5
2018-Feb-14 03:00N 37°22' E 025°44'510.2
2018-Feb-14 02:31N 37°18' E 025°48'51110.1
2018-Feb-12 00:01N 32°58' E 034°46'010.7
2018-Feb-12 00:00N 32°58' E 034°46'510.4
2018-Feb-11 23:29N 32°56' E 034°52'610.9
2018-Feb-11 22:59N 32°53' E 034°57'3 0.1
2018-Feb-10 22:16N 32°51' E 035°00'0 0.2
2018-Feb-10 21:56N 32°51' E 035°00'1 0.0
2018-Feb-10 09:12N 32°52' E 035°00'  
2018-Feb-08 01:10N 32°52' E 035°00'  

Dump ship's entire track history